Time;durP1;ratioP1;P1;durP2;ratioP2;P2;SDS_P1;SDS_P2;PMS_P1;PMS_P2;Temp;Humidity;BMP_temperature;BMP_pressure;BME280_temperature;BME280_humidity;BME280_pressure;Samples;Min_cycle;Max_cycle;Signal;HPM_P1;HPM_P2
2022/10/01 00:02:04;;;;;;;5.67;3.10;;;13.60;99.90;;;;;;5030963;28;21026;-88
2022/10/01 00:04:31;;;;;;;2.83;2.07;;;13.50;99.90;;;;;;5040236;28;21024;-87
2022/10/01 00:07:02;;;;;;;5.83;2.80;;;13.50;99.90;;;;;;5022154;28;20584;-86
2022/10/01 00:09:30;;;;;;;3.93;2.90;;;13.60;99.90;;;;;;5017343;28;20452;-87
2022/10/01 00:11:58;;;;;;;4.57;2.50;;;13.60;99.90;;;;;;5017184;28;20458;-87
2022/10/01 00:14:25;;;;;;;3.87;2.80;;;13.60;99.90;;;;;;5018445;28;20467;-87
2022/10/01 00:16:52;;;;;;;5.50;3.03;;;13.60;99.90;;;;;;5018573;28;20460;-87
2022/10/01 00:19:19;;;;;;;4.20;2.80;;;13.60;99.90;;;;;;5017419;28;20483;-88
2022/10/01 00:21:46;;;;;;;4.83;3.23;;;13.60;99.90;;;;;;5017268;28;20462;-87
2022/10/01 00:24:13;;;;;;;4.73;2.40;;;13.60;99.90;;;;;;5018580;28;20453;-88
2022/10/01 00:26:44;;;;;;;5.40;2.47;;;13.60;99.90;;;;;;5017837;28;20500;-86
2022/10/01 00:29:13;;;;;;;2.67;2.30;;;13.60;99.90;;;;;;5017609;28;20462;-87
2022/10/01 00:31:40;;;;;;;5.30;2.80;;;13.60;99.90;;;;;;5019008;28;20824;-87
2022/10/01 00:34:07;;;;;;;5.00;2.90;;;13.50;99.90;;;;;;5017890;28;20467;-86
2022/10/01 00:36:34;;;;;;;3.80;2.90;;;13.60;99.90;;;;;;5017846;28;20476;-87
2022/10/01 00:39:01;;;;;;;5.07;3.00;;;13.60;99.90;;;;;;5018349;28;20538;-87
2022/10/01 00:41:30;;;;;;;5.30;3.10;;;13.60;99.90;;;;;;5018206;28;20560;-88
2022/10/01 00:44:00;;;;;;;5.73;3.00;;;13.60;99.90;;;;;;5019501;28;20469;-88
2022/10/01 00:46:36;;;;;;;4.43;3.50;;;13.50;99.90;;;;;;5024435;28;20518;-87
2022/10/01 00:49:06;;;;;;;4.47;3.77;;;13.40;99.90;;;;;;5008808;28;20479;-87
2022/10/01 00:51:37;;;;;;;3.67;2.73;;;13.20;99.90;;;;;;5010742;28;20983;-86
2022/10/01 00:54:08;;;;;;;5.33;3.27;;;13.20;99.90;;;;;;5026263;28;20506;-87
2022/10/01 00:56:35;;;;;;;9.00;4.37;;;13.10;99.90;;;;;;5027834;28;20539;-87
2022/10/01 00:59:04;;;;;;;5.10;3.47;;;13.00;99.90;;;;;;5029673;28;20530;-87
2022/10/01 01:01:32;;;;;;;5.43;3.90;;;12.90;99.90;;;;;;5030035;28;20987;-85
2022/10/01 01:03:59;;;;;;;4.47;3.90;;;12.80;99.90;;;;;;5030649;28;20450;-86
2022/10/01 01:06:26;;;;;;;4.80;3.70;;;12.80;99.90;;;;;;5030060;28;20485;-87
2022/10/01 01:08:55;;;;;;;3.50;3.20;;;12.70;99.90;;;;;;5030317;28;20457;-87
2022/10/01 01:11:29;;;;;;;5.90;4.57;;;12.60;99.90;;;;;;5031474;28;20481;-87
2022/10/01 01:14:02;;;;;;;6.20;4.20;;;12.50;99.90;;;;;;5027823;28;20521;-87
2022/10/01 01:16:37;;;;;;;7.77;4.53;;;12.40;99.90;;;;;;5011321;28;20550;-85
2022/10/01 01:19:08;;;;;;;5.20;4.10;;;12.20;99.90;;;;;;5026200;28;20462;-88
2022/10/01 01:21:39;;;;;;;6.67;4.27;;;12.10;99.90;;;;;;5006327;28;20490;-88
2022/10/01 01:24:33;;;;;;;4.50;4.10;;;12.10;99.90;;;;;;5022111;28;20502;-86
2022/10/01 01:27:13;;;;;;;8.70;5.00;;;12.10;99.90;;;;;;5026182;28;20478;-86
2022/10/01 01:29:48;;;;;;;9.63;5.00;;;12.00;99.90;;;;;;5026784;28;20449;-86
2022/10/01 01:32:21;;;;;;;4.50;4.00;;;11.90;99.90;;;;;;5026227;28;20454;-86
2022/10/01 01:34:51;;;;;;;7.00;4.10;;;11.90;99.90;;;;;;5024613;28;20469;-87
2022/10/01 01:37:23;;;;;;;7.17;5.00;;;11.80;99.90;;;;;;5024543;28;20462;-84
2022/10/01 01:39:53;;;;;;;5.27;4.70;;;11.80;99.90;;;;;;5025945;28;20530;-87
2022/10/01 01:42:25;;;;;;;6.70;4.90;;;11.70;99.90;;;;;;5026162;28;20457;-86
2022/10/01 01:44:57;;;;;;;7.33;4.60;;;11.70;99.90;;;;;;5026842;28;20544;-85
2022/10/01 01:47:29;;;;;;;6.30;4.80;;;11.60;99.90;;;;;;5025167;28;20540;-86
2022/10/01 01:49:57;;;;;;;4.57;4.07;;;11.70;99.90;;;;;;5028387;28;20444;-87
2022/10/01 01:52:24;;;;;;;7.53;4.87;;;11.70;99.90;;;;;;5024672;28;20453;-85
2022/10/01 01:54:51;;;;;;;5.40;4.60;;;11.70;99.90;;;;;;5026363;28;20525;-85
2022/10/01 01:57:19;;;;;;;6.17;4.60;;;11.70;99.90;;;;;;5024899;28;20438;-85
2022/10/01 01:59:46;;;;;;;6.23;4.20;;;11.70;99.90;;;;;;5026711;28;20434;-86
2022/10/01 02:02:17;;;;;;;7.23;5.17;;;11.60;99.90;;;;;;5028749;28;20445;-86
2022/10/01 02:04:49;;;;;;;7.30;4.73;;;11.60;99.90;;;;;;5023460;28;20463;-86
2022/10/01 02:07:41;;;;;;;5.63;5.07;;;11.60;99.90;;;;;;5028569;28;20484;-85
2022/10/01 02:10:20;;;;;;;7.20;4.80;;;11.60;99.90;;;;;;5016402;28;20969;-85
2022/10/01 02:13:12;;;;;;;5.23;4.10;;;11.50;99.90;;;;;;5020597;28;20440;-85
2022/10/01 02:15:51;;;;;;;5.63;4.37;;;11.40;99.90;;;;;;5016304;28;21013;-85
2022/10/01 02:18:29;;;;;;;6.50;4.40;;;11.50;99.90;;;;;;5021287;28;20836;-86
2022/10/01 02:21:04;;;;;;;7.50;4.60;;;11.40;99.90;;;;;;5023773;28;20452;-85
2022/10/01 02:23:36;;;;;;;5.33;4.10;;;11.40;99.90;;;;;;5019414;28;20459;-85
2022/10/01 02:26:09;;;;;;;6.47;5.30;;;11.40;99.90;;;;;;5019822;28;20478;-83
2022/10/01 02:28:39;;;;;;;6.43;5.23;;;11.40;99.90;;;;;;5021110;28;20449;-85
2022/10/01 02:31:06;;;;;;;8.67;4.67;;;11.30;99.90;;;;;;5021213;28;20460;-82
2022/10/01 02:33:39;;;;;;;6.37;4.40;;;11.30;99.90;;;;;;5017523;28;20453;-83
2022/10/01 02:36:08;;;;;;;6.33;4.13;;;11.40;99.90;;;;;;5026532;28;20490;-82
2022/10/01 02:38:37;;;;;;;5.20;4.47;;;11.40;99.90;;;;;;5017917;28;20450;-84
2022/10/01 02:41:07;;;;;;;4.83;4.00;;;11.30;99.90;;;;;;5017394;28;20877;-84
2022/10/01 02:43:38;;;;;;;6.47;4.87;;;11.30;99.90;;;;;;5018381;28;20961;-82
2022/10/01 02:46:13;;;;;;;7.63;4.10;;;11.30;99.90;;;;;;5016883;28;20477;-83
2022/10/01 02:48:41;;;;;;;5.63;5.13;;;11.40;99.90;;;;;;5016306;28;20503;-83
2022/10/01 02:51:22;;;;;;;5.60;4.90;;;11.30;99.90;;;;;;5016753;28;20452;-84
2022/10/01 02:53:54;;;;;;;8.80;4.90;;;11.30;99.90;;;;;;5017221;28;20982;-83
2022/10/01 02:59:06;;;;;;;7.13;5.13;;;11.20;99.90;;;;;;5016248;28;21055;-83
2022/10/01 03:01:33;;;;;;;6.03;5.03;;;11.20;99.90;;;;;;5016582;28;20837;-83
2022/10/01 03:04:01;;;;;;;5.97;4.27;;;11.10;99.90;;;;;;5015854;28;20463;-84
2022/10/01 03:06:28;;;;;;;5.53;4.43;;;11.10;99.90;;;;;;5018961;28;20487;-84
2022/10/01 03:08:56;;;;;;;6.00;5.40;;;11.10;99.90;;;;;;5017187;28;20960;-84
2022/10/01 03:11:23;;;;;;;8.20;4.90;;;11.10;99.90;;;;;;5018276;28;20483;-85
2022/10/01 03:13:49;;;;;;;6.50;5.37;;;11.10;99.90;;;;;;5017940;28;20466;-84
2022/10/01 03:16:16;;;;;;;6.00;4.93;;;11.10;99.90;;;;;;5017330;28;20843;-83
2022/10/01 03:18:43;;;;;;;5.60;4.73;;;11.10;99.90;;;;;;5016539;28;20462;-83
2022/10/01 03:21:11;;;;;;;7.07;4.83;;;11.10;99.90;;;;;;5016850;28;20455;-83
2022/10/01 03:23:38;;;;;;;7.47;4.77;;;11.10;99.90;;;;;;5016142;28;20470;-83
2022/10/01 03:26:05;;;;;;;6.37;5.00;;;11.10;99.90;;;;;;5017359;28;20480;-83
2022/10/01 03:28:31;;;;;;;5.40;4.80;;;11.10;99.90;;;;;;5017712;28;20506;-84
2022/10/01 03:31:05;;;;;;;5.53;4.80;;;11.00;99.90;;;;;;5017948;28;20456;-85
2022/10/01 03:33:32;;;;;;;4.67;4.03;;;11.00;99.90;;;;;;5018438;28;20460;-84
2022/10/01 03:35:59;;;;;;;6.70;5.00;;;11.10;99.90;;;;;;5017634;28;20491;-84
2022/10/01 03:38:27;;;;;;;7.00;5.30;;;11.10;99.90;;;;;;5018347;28;20456;-83
2022/10/01 03:40:54;;;;;;;5.90;5.30;;;11.10;99.90;;;;;;5017196;28;20458;-83
2022/10/01 03:43:21;;;;;;;6.30;4.60;;;11.10;99.90;;;;;;5017497;28;20893;-84
2022/10/01 03:45:48;;;;;;;5.80;5.20;;;11.10;99.90;;;;;;5017283;28;20484;-82
2022/10/01 03:48:14;;;;;;;4.90;4.00;;;11.10;99.90;;;;;;5016924;28;20496;-83
2022/10/01 03:50:41;;;;;;;4.37;3.70;;;11.00;99.90;;;;;;5017448;28;20460;-83
2022/10/01 03:53:08;;;;;;;5.30;4.53;;;11.00;99.90;;;;;;5017856;28;20470;-84
2022/10/01 03:55:36;;;;;;;5.40;4.60;;;11.00;99.90;;;;;;5017097;28;20477;-83
2022/10/01 03:58:03;;;;;;;4.93;4.37;;;11.00;99.90;;;;;;5018402;28;20535;-83
2022/10/01 04:00:30;;;;;;;4.63;4.23;;;11.00;99.90;;;;;;5017939;28;20457;-84
2022/10/01 04:02:56;;;;;;;5.57;4.97;;;11.00;99.90;;;;;;5018152;28;20457;-84
2022/10/01 04:05:24;;;;;;;7.23;4.27;;;11.00;99.90;;;;;;5019060;28;20490;-83
2022/10/01 04:07:51;;;;;;;5.07;3.90;;;11.00;99.90;;;;;;5016854;28;20482;-83
2022/10/01 04:10:18;;;;;;;3.80;3.40;;;11.00;99.90;;;;;;5015402;28;21178;-81
2022/10/01 04:12:46;;;;;;;5.20;3.87;;;11.00;99.90;;;;;;5014753;28;20461;-81
2022/10/01 04:15:13;;;;;;;5.07;3.27;;;11.10;99.90;;;;;;5015336;28;20487;-83
2022/10/01 04:17:40;;;;;;;3.30;2.97;;;11.10;99.90;;;;;;5015299;28;20529;-82
2022/10/01 04:20:07;;;;;;;3.60;2.90;;;11.10;99.90;;;;;;5015508;28;20836;-81
2022/10/01 04:22:39;;;;;;;3.67;2.73;;;11.00;99.90;;;;;;5014980;28;20975;-79
2022/10/01 04:25:09;;;;;;;3.20;2.73;;;11.10;99.90;;;;;;5014983;28;20476;-82
2022/10/01 04:27:35;;;;;;;2.90;2.60;;;11.10;99.90;;;;;;5015331;28;20908;-81
2022/10/01 04:30:05;;;;;;;2.50;2.00;;;11.10;99.90;;;;;;5016332;28;20826;-82
2022/10/01 04:32:32;;;;;;;3.23;2.37;;;11.10;99.90;;;;;;5017195;28;20450;-81
2022/10/01 04:34:59;;;;;;;3.30;2.40;;;11.10;99.90;;;;;;5016355;28;20487;-80
2022/10/01 04:37:26;;;;;;;2.90;2.23;;;11.20;99.90;;;;;;5017680;28;20461;-81
2022/10/01 04:39:53;;;;;;;2.60;1.70;;;11.10;99.90;;;;;;5016751;28;21055;-81
2022/10/01 04:42:20;;;;;;;2.50;2.10;;;11.10;99.90;;;;;;5018194;28;20457;-81
2022/10/01 04:44:47;;;;;;;3.23;1.70;;;11.20;99.90;;;;;;5018781;28;20477;-81
2022/10/01 04:47:15;;;;;;;3.17;2.07;;;11.20;99.90;;;;;;5017594;28;20498;-80
2022/10/01 04:49:42;;;;;;;2.27;1.90;;;11.20;99.90;;;;;;5017487;28;20449;-81
2022/10/01 04:52:09;;;;;;;2.27;2.00;;;11.20;99.90;;;;;;5017528;28;20449;-81
2022/10/01 04:54:36;;;;;;;3.00;1.83;;;11.20;99.90;;;;;;5014770;28;20463;-80
2022/10/01 04:57:03;;;;;;;2.80;1.90;;;11.20;99.90;;;;;;5006716;28;20450;-81
2022/10/01 04:59:32;;;;;;;2.70;1.70;;;11.30;99.90;;;;;;5000432;28;20493;-79
2022/10/01 05:01:59;;;;;;;2.03;1.40;;;11.30;99.90;;;;;;5003786;28;20456;-81
2022/10/01 05:04:36;;;;;;;1.93;1.37;;;11.30;99.90;;;;;;5012890;28;20460;-80
2022/10/01 05:07:03;;;;;;;5.63;2.20;;;11.30;99.90;;;;;;5018580;28;20520;-81
2022/10/01 05:09:29;;;;;;;2.97;1.40;;;11.30;99.90;;;;;;5018956;28;20461;-81
2022/10/01 05:11:56;;;;;;;2.27;1.87;;;11.40;99.90;;;;;;5022980;28;20461;-81
2022/10/01 05:14:24;;;;;;;2.60;1.97;;;11.40;99.90;;;;;;5018327;28;20453;-81
2022/10/01 05:16:51;;;;;;;2.27;1.93;;;11.40;99.90;;;;;;5018833;28;20534;-80
2022/10/01 05:19:18;;;;;;;3.53;1.60;;;11.40;99.90;;;;;;5017291;28;20467;-82
2022/10/01 05:21:47;;;;;;;5.57;1.80;;;11.40;99.90;;;;;;5017013;28;20452;-81
2022/10/01 05:24:15;;;;;;;2.33;1.60;;;11.40;99.90;;;;;;5018466;28;20465;-81
2022/10/01 05:26:41;;;;;;;3.30;1.37;;;11.40;99.90;;;;;;5017492;28;20465;-80
2022/10/01 05:29:08;;;;;;;2.03;1.60;;;11.40;99.90;;;;;;5017850;28;20499;-81
2022/10/01 05:31:35;;;;;;;2.53;1.67;;;11.40;99.90;;;;;;5017140;28;20457;-81
2022/10/01 05:34:02;;;;;;;1.90;1.40;;;11.50;99.90;;;;;;5017134;28;20464;-81
2022/10/01 05:36:29;;;;;;;2.30;1.60;;;11.50;99.90;;;;;;5016946;28;20492;-81
2022/10/01 05:38:57;;;;;;;3.47;1.70;;;11.50;99.90;;;;;;5017503;28;20449;-81
2022/10/01 05:41:24;;;;;;;3.03;1.80;;;11.50;99.90;;;;;;5017635;28;20460;-81
2022/10/01 05:43:51;;;;;;;3.10;1.60;;;11.50;99.90;;;;;;5017199;28;20451;-81
2022/10/01 05:46:18;;;;;;;2.43;1.30;;;11.60;99.90;;;;;;5016974;28;20501;-81
2022/10/01 05:48:45;;;;;;;2.80;1.73;;;11.60;99.90;;;;;;5016044;28;20493;-82
2022/10/01 05:51:15;;;;;;;3.07;2.30;;;11.60;99.90;;;;;;5018079;28;20460;-82
2022/10/01 05:53:41;;;;;;;2.90;2.60;;;11.60;99.90;;;;;;5018190;28;20524;-83
2022/10/01 05:56:10;;;;;;;2.53;1.63;;;11.60;99.90;;;;;;5019487;28;20510;-82
2022/10/01 05:58:37;;;;;;;4.30;2.00;;;11.60;99.90;;;;;;5020993;28;20445;-83
2022/10/01 06:01:04;;;;;;;3.10;2.00;;;11.60;99.90;;;;;;5023218;28;20467;-83
2022/10/01 06:03:31;;;;;;;5.23;1.90;;;11.60;99.90;;;;;;5022066;28;20457;-82
2022/10/01 06:05:59;;;;;;;5.40;1.83;;;11.60;99.90;;;;;;5023631;28;20478;-83
2022/10/01 06:08:27;;;;;;;3.07;1.93;;;11.60;99.90;;;;;;5024830;28;20491;-83
2022/10/01 06:10:59;;;;;;;2.90;1.40;;;11.70;99.90;;;;;;5023299;28;20467;-83
2022/10/01 06:13:28;;;;;;;1.97;1.47;;;11.70;99.90;;;;;;5024615;28;20456;-83
2022/10/01 06:15:55;;;;;;;2.47;1.13;;;11.60;99.90;;;;;;5023333;28;20480;-82
2022/10/01 06:18:22;;;;;;;3.30;1.50;;;11.70;99.90;;;;;;5023018;28;20519;-83
2022/10/01 06:20:49;;;;;;;2.70;1.60;;;11.70;99.90;;;;;;5024607;28;20513;-84
2022/10/01 06:23:15;;;;;;;2.83;1.60;;;11.70;99.90;;;;;;5022948;28;20465;-83
2022/10/01 06:25:44;;;;;;;2.30;1.13;;;11.70;99.90;;;;;;5022858;28;20998;-84
2022/10/01 06:28:13;;;;;;;2.10;1.10;;;11.70;99.90;;;;;;5024849;28;20485;-84
2022/10/01 06:30:42;;;;;;;2.63;1.50;;;11.70;99.90;;;;;;5024831;28;20485;-83
2022/10/01 06:33:11;;;;;;;2.17;1.20;;;11.70;99.90;;;;;;5026826;28;20473;-84
2022/10/01 06:35:41;;;;;;;2.50;1.30;;;11.80;99.90;;;;;;5022258;28;20469;-84
2022/10/01 06:38:08;;;;;;;1.67;1.00;;;11.80;99.90;;;;;;5025409;28;20528;-83
2022/10/01 06:40:36;;;;;;;4.23;1.10;;;11.80;99.90;;;;;;5026343;28;20464;-83
2022/10/01 06:43:04;;;;;;;1.70;1.00;;;11.80;99.90;;;;;;5026219;28;20453;-82
2022/10/01 06:45:31;;;;;;;2.03;1.20;;;11.80;99.90;;;;;;5026767;28;20483;-83
2022/10/01 06:48:01;;;;;;;1.90;1.00;;;11.90;99.90;;;;;;5026027;28;20590;-83
2022/10/01 06:50:29;;;;;;;2.17;1.20;;;11.90;99.90;;;;;;5018227;28;20457;-83
2022/10/01 06:52:56;;;;;;;1.60;1.00;;;11.90;99.90;;;;;;5023231;28;20463;-82
2022/10/01 06:55:27;;;;;;;1.80;1.03;;;11.90;99.90;;;;;;5024972;28;21047;-84
2022/10/01 06:57:55;;;;;;;1.90;0.90;;;11.90;99.90;;;;;;5022033;28;20532;-83
2022/10/01 07:00:23;;;;;;;1.90;1.23;;;11.90;99.90;;;;;;5024215;28;20458;-83
2022/10/01 07:02:49;;;;;;;1.80;1.03;;;11.90;99.90;;;;;;5021100;28;20466;-83
2022/10/01 07:05:18;;;;;;;2.03;1.20;;;11.90;99.90;;;;;;5020559;28;21095;-82
2022/10/01 07:07:46;;;;;;;2.73;1.10;;;11.90;99.90;;;;;;5021945;28;20456;-82
2022/10/01 07:10:13;;;;;;;2.07;1.47;;;12.00;99.90;;;;;;5013617;28;20480;-82
2022/10/01 07:12:40;;;;;;;2.97;1.27;;;12.00;99.90;;;;;;5021424;28;20456;-83
2022/10/01 07:15:08;;;;;;;2.27;1.10;;;12.00;99.90;;;;;;5022183;28;20492;-82
2022/10/01 07:17:43;;;;;;;3.40;1.40;;;12.00;99.90;;;;;;5017036;28;20454;-82
2022/10/01 07:20:10;;;;;;;1.87;1.30;;;12.00;99.90;;;;;;5018631;28;20872;-82
2022/10/01 07:22:38;;;;;;;2.20;1.50;;;12.00;99.90;;;;;;5019925;28;20952;-82
2022/10/01 07:25:06;;;;;;;3.07;2.00;;;12.10;99.90;;;;;;5019444;28;20468;-82
2022/10/01 07:27:33;;;;;;;4.50;2.20;;;12.10;99.90;;;;;;5014152;28;20451;-82
2022/10/01 07:30:00;;;;;;;2.77;2.13;;;12.00;99.90;;;;;;5012311;28;20484;-82
2022/10/01 07:32:27;;;;;;;3.30;2.00;;;12.10;99.90;;;;;;5016178;28;20938;-83
2022/10/01 07:34:53;;;;;;;3.63;2.37;;;12.10;99.90;;;;;;5017356;28;20473;-83
2022/10/01 07:37:20;;;;;;;2.80;2.30;;;12.10;99.90;;;;;;5014033;28;20552;-82
2022/10/01 07:39:48;;;;;;;3.50;2.20;;;12.10;99.90;;;;;;5016723;28;20453;-81
2022/10/01 07:42:15;;;;;;;3.07;2.20;;;12.10;99.90;;;;;;5025021;28;20908;-81
2022/10/01 07:44:42;;;;;;;2.67;2.13;;;12.10;99.90;;;;;;5022878;28;20481;-82
2022/10/01 07:47:09;;;;;;;3.10;2.17;;;12.20;99.90;;;;;;5024169;28;20466;-82
2022/10/01 07:49:35;;;;;;;2.53;2.10;;;12.20;99.90;;;;;;5026239;28;20557;-82
2022/10/01 07:52:03;;;;;;;2.13;1.77;;;12.10;99.90;;;;;;5028325;28;20540;-80
2022/10/01 07:54:30;;;;;;;2.33;1.97;;;12.20;99.90;;;;;;5026824;28;20460;-83
2022/10/01 07:56:58;;;;;;;2.50;2.23;;;12.20;99.90;;;;;;5025235;28;20514;-83
2022/10/01 07:59:26;;;;;;;2.73;2.27;;;12.20;99.90;;;;;;5025601;28;20540;-83
2022/10/01 08:01:53;;;;;;;1.80;1.30;;;12.30;99.90;;;;;;5025565;28;20453;-82
2022/10/01 08:07:06;;;;;;;3.37;1.80;;;12.40;99.90;;;;;;5026351;28;20436;-83
2022/10/01 08:09:33;;;;;;;2.23;1.40;;;12.50;99.90;;;;;;5026151;28;20490;-83
2022/10/01 08:12:01;;;;;;;2.20;1.53;;;12.50;99.90;;;;;;5026603;28;20559;-83
2022/10/01 08:14:29;;;;;;;3.03;1.43;;;12.50;99.90;;;;;;5025694;28;20529;-81
2022/10/01 08:16:56;;;;;;;2.20;1.43;;;12.60;99.90;;;;;;5027664;28;20459;-82
2022/10/01 08:19:23;;;;;;;1.80;1.20;;;12.60;99.90;;;;;;5028273;28;20508;-82
2022/10/01 08:21:50;;;;;;;2.20;1.10;;;12.60;99.90;;;;;;5026695;28;20509;-82
2022/10/01 08:24:17;;;;;;;3.27;1.67;;;12.80;99.90;;;;;;5028404;28;20519;-82
2022/10/01 08:26:43;;;;;;;2.43;1.40;;;12.90;99.90;;;;;;5026645;28;20453;-82
2022/10/01 08:29:12;;;;;;;4.23;1.60;;;12.90;99.90;;;;;;5028356;28;20509;-82
2022/10/01 08:31:39;;;;;;;2.70;1.40;;;12.90;99.90;;;;;;5027353;28;20529;-82
2022/10/01 08:34:06;;;;;;;2.20;1.30;;;12.90;99.90;;;;;;5027732;28;20473;-82
2022/10/01 08:36:34;;;;;;;2.90;1.40;;;13.00;99.90;;;;;;5027580;28;20480;-82
2022/10/01 08:39:01;;;;;;;3.23;1.20;;;13.10;99.90;;;;;;5027232;28;20453;-82
2022/10/01 08:41:38;;;;;;;5.60;1.37;;;13.10;99.90;;;;;;5025465;28;20484;-82
2022/10/01 08:44:07;;;;;;;3.00;1.50;;;13.30;99.90;;;;;;5026138;28;20524;-83
2022/10/01 08:46:37;;;;;;;2.33;1.57;;;13.50;99.90;;;;;;5026222;28;20582;-83
2022/10/01 08:49:11;;;;;;;2.20;1.40;;;13.50;99.90;;;;;;5023721;28;20489;-82
2022/10/01 08:51:44;;;;;;;3.33;1.53;;;13.60;99.90;;;;;;5028729;28;20515;-82
2022/10/01 08:54:22;;;;;;;3.10;1.73;;;13.70;99.90;;;;;;5027124;28;20987;-82
2022/10/01 08:56:49;;;;;;;2.47;1.87;;;13.90;99.90;;;;;;5025169;28;20460;-82
2022/10/01 08:59:38;;;;;;;2.33;1.80;;;14.00;99.90;;;;;;5023829;28;20459;-82
2022/10/01 09:02:20;;;;;;;3.10;1.60;;;14.10;99.90;;;;;;5025119;28;20517;-82
2022/10/01 09:04:50;;;;;;;6.20;3.97;;;14.10;99.90;;;;;;5027535;28;20474;-83
2022/10/01 09:07:32;;;;;;;5.60;3.57;;;14.10;99.90;;;;;;5024998;28;20534;-82
2022/10/01 09:10:06;;;;;;;5.80;4.80;;;14.10;99.90;;;;;;5024893;28;20875;-82
2022/10/01 09:12:46;;;;;;;8.07;6.03;;;14.10;99.90;;;;;;5024724;28;20458;-82
2022/10/01 09:15:21;;;;;;;7.77;5.57;;;14.00;99.90;;;;;;5025729;28;20487;-85
2022/10/01 09:18:11;;;;;;;11.00;6.70;;;14.00;99.90;;;;;;5025700;28;20461;-82
2022/10/01 09:20:42;;;;;;;11.00;7.00;;;14.00;99.90;;;;;;5026746;28;20452;-83
2022/10/01 09:23:19;;;;;;;6.97;5.70;;;14.00;99.90;;;;;;5025928;28;20458;-84
2022/10/01 09:25:50;;;;;;;8.83;5.60;;;14.10;99.90;;;;;;5025473;28;20469;-83
2022/10/01 09:28:20;;;;;;;5.47;3.27;;;14.20;99.90;;;;;;5025128;28;20515;-83
2022/10/01 09:30:55;;;;;;;4.10;3.30;;;14.20;99.90;;;;;;5024723;28;20446;-83
2022/10/01 09:33:29;;;;;;;3.57;2.77;;;14.40;99.90;;;;;;5012603;28;20476;-82
2022/10/01 09:36:04;;;;;;;4.10;2.60;;;14.60;99.90;;;;;;5035862;28;21079;-82
2022/10/01 09:38:36;;;;;;;4.83;2.27;;;14.80;99.90;;;;;;5044685;28;20450;-82
2022/10/01 09:41:03;;;;;;;3.80;2.40;;;15.10;99.90;;;;;;5022301;28;20461;-83
2022/10/01 09:43:32;;;;;;;4.83;1.87;;;15.20;99.90;;;;;;5027669;28;20454;-83
2022/10/01 09:46:00;;;;;;;3.70;2.10;;;15.20;99.90;;;;;;5023366;28;20475;-81
2022/10/01 09:48:34;;;;;;;2.70;2.37;;;15.10;99.90;;;;;;5014853;28;20518;-82
2022/10/01 09:51:08;;;;;;;3.73;2.30;;;15.20;99.90;;;;;;5025408;28;20556;-84
2022/10/01 09:53:41;;;;;;;6.33;2.13;;;15.20;99.90;;;;;;5026685;28;20449;-83
2022/10/01 09:56:18;;;;;;;5.20;2.40;;;15.10;99.90;;;;;;5025785;28;21064;-82
2022/10/01 09:58:50;;;;;;;2.73;1.73;;;15.10;99.90;;;;;;5023931;28;20460;-82
2022/10/01 10:01:22;;;;;;;3.23;2.07;;;15.00;99.90;;;;;;5022688;28;20460;-82
2022/10/01 10:03:58;;;;;;;3.30;2.27;;;15.10;99.90;;;;;;5024831;28;20520;-83
2022/10/01 10:06:30;;;;;;;4.03;2.20;;;15.00;99.90;;;;;;5024492;28;20478;-82
2022/10/01 10:09:04;;;;;;;4.00;2.83;;;14.80;99.90;;;;;;5020885;28;20478;-80
2022/10/01 10:11:32;;;;;;;3.40;2.27;;;14.80;99.90;;;;;;5023482;28;20453;-82
2022/10/01 10:14:04;;;;;;;5.40;3.10;;;14.80;99.90;;;;;;5023360;28;20455;-80
2022/10/01 10:16:36;;;;;;;5.80;4.13;;;14.80;99.90;;;;;;5022598;28;20476;-81
2022/10/01 10:19:15;;;;;;;8.23;4.50;;;14.60;99.90;;;;;;5021724;28;20453;-81
2022/10/01 10:21:55;;;;;;;7.43;3.47;;;14.70;99.90;;;;;;5023320;28;20458;-81
2022/10/01 10:24:26;;;;;;;4.00;3.30;;;14.70;99.90;;;;;;5023080;28;20491;-82
2022/10/01 10:26:57;;;;;;;3.87;2.93;;;14.70;99.90;;;;;;5023312;28;20513;-83
2022/10/01 10:29:29;;;;;;;4.97;3.00;;;14.60;99.90;;;;;;5023608;28;20520;-82
2022/10/01 10:32:15;;;;;;;5.03;3.20;;;14.80;99.90;;;;;;5022154;28;20509;-83
2022/10/01 10:34:46;;;;;;;7.43;4.23;;;14.80;99.90;;;;;;5021736;28;20480;-82
2022/10/01 10:37:15;;;;;;;6.90;5.20;;;14.90;99.90;;;;;;5016109;28;20471;-83
2022/10/01 10:39:46;;;;;;;7.10;4.70;;;15.00;99.90;;;;;;5008656;28;20818;-81
2022/10/01 10:42:17;;;;;;;6.17;3.53;;;15.30;99.90;;;;;;5016278;28;20447;-82
2022/10/01 10:44:48;;;;;;;3.10;2.50;;;15.50;99.90;;;;;;4997076;28;20459;-83
2022/10/01 10:47:19;;;;;;;4.10;2.40;;;16.10;99.90;;;;;;5010207;28;20452;-83
2022/10/01 10:49:51;;;;;;;3.43;3.07;;;16.70;99.90;;;;;;5023416;28;20487;-83
2022/10/01 10:52:22;;;;;;;3.43;3.13;;;17.30;99.90;;;;;;5026356;28;20455;-83
2022/10/01 10:54:52;;;;;;;5.10;3.10;;;17.80;99.90;;;;;;5027782;28;20469;-83
2022/10/01 10:57:24;;;;;;;4.83;3.10;;;18.10;99.90;;;;;;5027968;28;20843;-85
2022/10/01 10:59:59;;;;;;;4.23;3.30;;;18.10;99.90;;;;;;5028029;28;20437;-83
2022/10/01 11:02:30;;;;;;;10.90;3.70;;;18.40;99.90;;;;;;5028551;28;20514;-86
2022/10/01 11:05:02;;;;;;;6.23;4.07;;;18.50;99.90;;;;;;5028187;28;20476;-85
2022/10/01 11:07:38;;;;;;;4.90;3.53;;;18.10;99.90;;;;;;5026195;28;20496;-84
2022/10/01 11:10:20;;;;;;;6.83;4.90;;;18.00;99.90;;;;;;5025223;28;20536;-86
2022/10/01 11:13:00;;;;;;;3.07;2.47;;;18.00;99.90;;;;;;5024852;28;20457;-85
2022/10/01 11:15:44;;;;;;;3.87;3.07;;;18.70;99.90;;;;;;5028455;28;20475;-84
2022/10/01 11:18:34;;;;;;;4.13;2.40;;;18.90;99.90;;;;;;5028719;28;20435;-85
2022/10/01 11:21:18;;;;;;;2.20;1.70;;;18.30;99.90;;;;;;5029446;28;20476;-85
2022/10/01 11:24:09;;;;;;;6.73;2.20;;;17.90;99.90;;;;;;5029112;28;20444;-84
2022/10/01 11:26:46;;;;;;;3.07;1.90;;;17.70;99.90;;;;;;5018085;28;20483;-85
2022/10/01 11:29:25;;;;;;;3.90;1.93;;;18.40;99.90;;;;;;5028019;28;20435;-86
2022/10/01 11:32:02;;;;;;;5.33;2.00;;;19.00;99.90;;;;;;5029015;28;20455;-85
2022/10/01 11:34:49;;;;;;;9.43;4.50;;;19.30;99.90;;;;;;5027510;28;20518;-85
2022/10/01 11:37:30;;;;;;;9.93;2.87;;;20.00;99.90;;;;;;5028625;28;20901;-84
2022/10/01 11:40:03;;;;;;;6.07;2.40;;;19.80;99.90;;;;;;5029572;28;20833;-86
2022/10/01 11:42:34;;;;;;;6.93;2.20;;;20.00;99.90;;;;;;5029418;28;20492;-83
2022/10/01 11:45:04;;;;;;;7.73;2.00;;;20.00;99.90;;;;;;5029748;28;20488;-84
2022/10/01 11:47:36;;;;;;;5.03;2.33;;;19.40;99.90;;;;;;5029961;28;20456;-83
2022/10/01 11:50:08;;;;;;;6.10;2.40;;;19.40;99.90;;;;;;5028372;28;20492;-85
2022/10/01 11:52:46;;;;;;;6.73;2.63;;;19.40;99.90;;;;;;5029455;28;20453;-88
2022/10/01 12:01:04;;;;;;;10.60;2.13;;;20.00;99.90;;;;;;5029274;28;20460;-83
2022/10/01 12:03:42;;;;;;;7.60;2.30;;;19.60;99.90;;;;;;5028483;28;20481;-84
2022/10/01 12:06:13;;;;;;;6.20;2.80;;;19.20;99.90;;;;;;5026585;28;20571;-81
2022/10/01 12:08:47;;;;;;;6.40;2.50;;;18.70;99.90;;;;;;5028272;28;20487;-83
2022/10/01 12:11:21;;;;;;;8.70;2.70;;;18.20;99.90;;;;;;5025218;28;20492;-81
2022/10/01 12:13:55;;;;;;;7.23;2.77;;;17.70;99.90;;;;;;5023212;28;20460;-81
2022/10/01 12:16:36;;;;;;;8.80;2.90;;;17.30;99.90;;;;;;5019893;28;20492;-81
2022/10/01 12:19:09;;;;;;;9.23;3.47;;;16.70;99.90;;;;;;5019047;28;20460;-80
2022/10/01 12:21:40;;;;;;;5.83;2.80;;;16.10;99.90;;;;;;5020354;28;20465;-81
2022/10/01 12:24:13;;;;;;;6.30;3.13;;;15.80;99.90;;;;;;5021195;28;20464;-82
2022/10/01 12:26:52;;;;;;;8.50;3.43;;;15.70;99.90;;;;;;5021516;28;20479;-80
2022/10/01 12:29:26;;;;;;;7.73;3.47;;;16.30;99.90;;;;;;5022074;28;20548;-82
2022/10/01 12:32:01;;;;;;;6.03;3.83;;;17.30;99.90;;;;;;5023846;28;20815;-82
2022/10/01 12:34:43;;;;;;;7.07;3.33;;;18.00;99.90;;;;;;5026001;28;20467;-82
2022/10/01 12:37:21;;;;;;;9.93;2.93;;;18.60;99.90;;;;;;5009828;28;20474;-83
2022/10/01 12:40:21;;;;;;;6.50;2.93;;;19.10;99.90;;;;;;5025781;28;20457;-83
2022/10/01 12:43:13;;;;;;;4.23;2.27;;;19.60;99.90;;;;;;5006380;28;20470;-81
2022/10/01 12:45:47;;;;;;;6.50;3.23;;;19.80;99.90;;;;;;5013344;28;20481;-80
2022/10/01 12:48:25;;;;;;;6.00;3.00;;;20.30;99.90;;;;;;5027145;28;20458;-81
2022/10/01 12:51:12;;;;;;;10.80;4.10;;;20.40;99.90;;;;;;5028564;28;20546;-82
2022/10/01 12:53:45;;;;;;;9.07;3.30;;;20.70;99.90;;;;;;5027999;28;20463;-80
2022/10/01 12:56:29;;;;;;;12.60;3.10;;;20.40;99.90;;;;;;5028275;28;20642;-80
2022/10/01 12:59:19;;;;;;;8.53;3.40;;;20.00;99.90;;;;;;5027176;28;20484;-81
2022/10/01 13:01:59;;;;;;;5.50;2.53;;;19.40;99.90;;;;;;5017365;28;20457;-82
2022/10/01 13:04:59;;;;;;;9.40;3.70;;;18.90;99.90;;;;;;5025107;28;20486;-81
2022/10/01 13:07:46;;;;;;;11.10;3.10;;;18.60;99.90;;;;;;5017691;28;20463;-81
2022/10/01 13:10:28;;;;;;;9.63;3.00;;;18.20;99.90;;;;;;5006605;28;20538;-82
2022/10/01 13:13:03;;;;;;;5.27;2.63;;;18.10;99.90;;;;;;5017196;28;20460;-80
2022/10/01 13:15:33;;;;;;;12.67;3.50;;;18.20;99.90;;;;;;5027266;28;20537;-81
2022/10/01 13:18:10;;;;;;;7.03;2.73;;;18.20;99.90;;;;;;5027243;28;20458;-80